createdAt,value
2018-09-09T00:00:16.143Z,84.18
2018-09-09T00:01:16.169Z,83.22
2018-09-09T00:02:16.190Z,83.41
2018-09-09T00:03:16.218Z,84.18
2018-09-09T00:04:16.237Z,83.80
2018-09-09T00:05:16.256Z,83.18
2018-09-09T00:06:16.283Z,84.23
2018-09-09T00:07:16.303Z,84.33
2018-09-09T00:08:16.325Z,85.10
2018-09-09T00:09:16.352Z,84.42
2018-09-09T00:10:16.377Z,84.52
2018-09-09T00:11:16.395Z,84.04
2018-09-09T00:12:16.424Z,82.84
2018-09-09T00:13:16.441Z,83.41
2018-09-09T00:14:16.465Z,83.37
2018-09-09T00:15:16.491Z,83.70
2018-09-09T00:16:16.510Z,83.85
2018-09-09T00:17:16.538Z,84.33
2018-09-09T00:18:16.561Z,84.37
2018-09-09T00:19:16.582Z,84.33
2018-09-09T00:20:16.619Z,84.52
2018-09-09T00:21:16.626Z,84.23
2018-09-09T00:22:16.649Z,84.52
2018-09-09T00:23:16.673Z,83.56
2018-09-09T00:24:16.694Z,84.23
2018-09-09T00:25:16.729Z,84.61
2018-09-09T00:26:16.754Z,85.00
2018-09-09T00:27:16.768Z,84.91
2018-09-09T00:28:16.793Z,84.91
2018-09-09T00:29:16.821Z,85.67
2018-09-09T00:30:16.837Z,84.61
2018-09-09T00:31:16.857Z,85.58
2018-09-09T00:32:16.881Z,85.58
2018-09-09T00:33:16.908Z,84.33
2018-09-09T00:34:16.940Z,85.58
2018-09-09T00:35:16.952Z,85.10
2018-09-09T00:36:16.977Z,85.38
2018-09-09T00:37:16.999Z,86.05
2018-09-09T00:38:17.025Z,85.58
2018-09-09T00:39:17.044Z,85.48
2018-09-09T00:40:17.070Z,85.96
2018-09-09T00:41:17.087Z,87.21
2018-09-09T00:42:17.114Z,87.88
2018-09-09T00:43:17.131Z,85.86
2018-09-09T00:44:17.158Z,87.21
2018-09-09T00:45:17.183Z,87.49
2018-09-09T00:46:17.210Z,88.26
2018-09-09T00:47:17.227Z,88.17
2018-09-09T00:48:17.250Z,88.65
2018-09-09T00:49:17.275Z,88.84
2018-09-09T00:50:17.296Z,88.07
2018-09-09T00:51:17.323Z,88.55
2018-09-09T00:52:17.351Z,88.26
2018-09-09T00:53:17.363Z,88.84
2018-09-09T00:54:17.387Z,88.84
2018-09-09T00:55:17.419Z,88.93
2018-09-09T00:56:17.436Z,88.55
2018-09-09T00:57:17.464Z,88.93
2018-09-09T00:58:17.490Z,88.60
2018-09-09T00:59:17.505Z,90.28
2018-09-09T01:00:17.536Z,91.33
2018-09-09T01:01:17.553Z,88.79
2018-09-09T01:02:17.573Z,90.04
2018-09-09T01:03:17.601Z,90.37
2018-09-09T01:04:17.621Z,89.56
2018-09-09T01:05:17.645Z,90.66
2018-09-09T01:06:17.667Z,91.42
2018-09-09T01:07:17.690Z,90.04
2018-09-09T01:08:17.707Z,89.65
2018-09-09T01:09:17.737Z,89.56
2018-09-09T01:10:17.759Z,89.27
2018-09-09T01:11:17.785Z,90.81
2018-09-09T01:12:17.803Z,90.81
2018-09-09T01:13:17.830Z,89.56
2018-09-09T01:14:17.852Z,89.37
2018-09-09T01:15:17.889Z,90.33
2018-09-09T01:16:17.897Z,89.94
2018-09-09T01:17:17.922Z,90.23
2018-09-09T01:18:17.945Z,89.75
2018-09-09T01:19:17.964Z,89.56
2018-09-09T01:20:17.988Z,88.60
2018-09-09T01:21:18.010Z,88.98
2018-09-09T01:22:18.034Z,88.41
2018-09-09T01:23:18.059Z,88.70
2018-09-09T01:24:18.080Z,88.60
2018-09-09T01:25:18.105Z,87.74
2018-09-09T01:26:18.128Z,87.74
2018-09-09T01:27:18.154Z,87.26
2018-09-09T01:28:18.172Z,88.02
2018-09-09T01:29:18.194Z,86.88
2018-09-09T01:30:18.219Z,87.35
2018-09-09T01:31:18.236Z,87.64
2018-09-09T01:32:18.263Z,86.11
2018-09-09T01:33:18.286Z,85.53
2018-09-09T01:34:18.318Z,87.35
2018-09-09T01:35:18.332Z,86.78
2018-09-09T01:36:18.356Z,86.01
2018-09-09T01:37:18.374Z,86.49
2018-09-09T01:38:18.402Z,86.11
2018-09-09T01:39:18.422Z,85.53
2018-09-09T01:40:18.440Z,85.25
2018-09-09T01:41:18.470Z,85.44
2018-09-09T01:42:18.495Z,86.11
2018-09-09T01:43:18.516Z,86.58
2018-09-09T01:44:18.543Z,85.53
2018-09-09T01:45:18.556Z,85.92
2018-09-09T01:46:18.583Z,86.01
2018-09-09T01:47:18.607Z,87.45
2018-09-09T01:48:18.626Z,87.45
2018-09-09T01:49:18.652Z,87.45
2018-09-09T01:50:18.673Z,87.45
2018-09-09T01:51:18.696Z,86.49
2018-09-09T01:52:18.719Z,86.78
2018-09-09T01:53:18.742Z,87.16
2018-09-09T01:54:18.769Z,85.92
2018-09-09T01:55:18.784Z,85.72
2018-09-09T01:56:18.812Z,85.92
2018-09-09T01:57:18.834Z,86.58
2018-09-09T01:58:18.854Z,86.58
2018-09-09T01:59:18.875Z,86.49
2018-09-09T02:00:18.902Z,86.40
2018-09-09T02:01:18.923Z,86.30
2018-09-09T02:02:18.944Z,86.40
2018-09-09T02:03:18.966Z,85.63
2018-09-09T02:04:18.992Z,85.63
2018-09-09T02:05:19.015Z,85.78
2018-09-09T02:06:19.036Z,85.68
2018-09-09T02:07:19.058Z,85.92
2018-09-09T02:08:19.082Z,86.88
2018-09-09T02:09:19.106Z,86.40
2018-09-09T02:10:19.134Z,86.01
2018-09-09T02:11:19.154Z,86.49
2018-09-09T02:12:19.173Z,86.49
2018-09-09T02:13:19.194Z,86.21
2018-09-09T02:14:19.220Z,85.63
2018-09-09T02:15:19.241Z,84.91
2018-09-09T02:16:19.260Z,85.58
2018-09-09T02:17:19.289Z,85.49
2018-09-09T02:18:19.308Z,85.97
2018-09-09T02:19:19.327Z,86.16
2018-09-09T02:20:19.402Z,85.88
2018-09-09T02:21:19.380Z,85.78
2018-09-09T02:22:19.397Z,85.82
2018-09-09T02:23:19.420Z,85.58
2018-09-09T02:24:19.444Z,85.78
2018-09-09T02:25:19.470Z,84.91
2018-09-09T02:26:19.506Z,85.21
2018-09-09T02:27:19.508Z,85.49
2018-09-09T02:28:19.536Z,85.82
2018-09-09T02:29:19.560Z,85.72
2018-09-09T02:30:19.580Z,85.53
2018-09-09T02:31:19.604Z,84.95
2018-09-09T02:32:19.622Z,85.78
2018-09-09T02:33:19.648Z,85.68
2018-09-09T02:34:19.718Z,85.97
2018-09-09T02:35:19.692Z,85.82
2018-09-09T02:36:19.720Z,85.92
2018-09-09T02:37:19.740Z,85.25
2018-09-09T02:38:19.765Z,85.44
2018-09-09T02:39:19.784Z,85.34
2018-09-09T02:40:19.803Z,85.53
2018-09-09T02:41:19.832Z,85.49
2018-09-09T02:42:19.850Z,86.30
2018-09-09T02:43:19.874Z,85.15
2018-09-09T02:44:19.894Z,84.77
2018-09-09T02:45:19.920Z,84.95
2018-09-09T02:46:19.941Z,85.34
2018-09-09T02:47:19.971Z,85.44
2018-09-09T02:48:19.988Z,85.25
2018-09-09T02:49:20.009Z,85.34
2018-09-09T02:50:20.037Z,85.53
2018-09-09T02:51:20.054Z,85.05
2018-09-09T02:52:20.076Z,84.28
2018-09-09T02:53:20.100Z,84.86
2018-09-09T02:54:20.134Z,84.58
2018-09-09T02:55:20.144Z,85.82
2018-09-09T02:56:20.191Z,85.05
2018-09-09T02:57:20.190Z,86.01
2018-09-09T02:58:20.218Z,86.54
2018-09-09T02:59:20.240Z,86.49
2018-09-09T03:00:20.257Z,86.30
2018-09-09T03:01:20.283Z,86.68
2018-09-09T03:02:20.309Z,86.93
2018-09-09T03:03:20.326Z,86.74
2018-09-09T03:04:20.351Z,86.74
2018-09-09T03:05:20.372Z,86.21
2018-09-09T03:06:20.406Z,86.25
2018-09-09T03:07:20.419Z,86.45
2018-09-09T03:08:20.446Z,86.45
2018-09-09T03:09:20.461Z,85.88
2018-09-09T03:10:20.641Z,85.49
2018-09-09T03:11:20.509Z,85.97
2018-09-09T03:12:20.531Z,85.88
2018-09-09T03:13:20.552Z,86.45
2018-09-09T03:14:20.579Z,86.16
2018-09-09T03:15:20.603Z,86.83
2018-09-09T03:16:20.624Z,86.07
2018-09-09T03:17:20.645Z,86.16
2018-09-09T03:18:20.667Z,86.45
2018-09-09T03:19:20.686Z,85.97
2018-09-09T03:20:20.713Z,85.88
2018-09-09T03:21:20.737Z,86.35
2018-09-09T03:22:20.761Z,86.35
2018-09-09T03:23:20.779Z,86.64
2018-09-09T03:24:20.807Z,86.16
2018-09-09T03:25:20.825Z,86.74
2018-09-09T03:26:20.847Z,86.74
2018-09-09T03:27:20.872Z,86.54
2018-09-09T03:28:20.923Z,87.02
2018-09-09T03:29:20.917Z,87.12
2018-09-09T03:30:20.941Z,87.31
2018-09-09T03:31:20.961Z,86.64
2018-09-09T03:32:20.990Z,86.54
2018-09-09T03:33:21.007Z,86.54
2018-09-09T03:34:21.024Z,87.12
2018-09-09T03:35:21.045Z,87.41
2018-09-09T03:36:21.075Z,87.41
2018-09-09T03:37:21.095Z,87.60
2018-09-09T03:38:21.115Z,87.31
2018-09-09T03:39:21.140Z,87.41
2018-09-09T03:40:21.161Z,87.79
2018-09-09T03:41:21.192Z,87.21
2018-09-09T03:42:21.205Z,87.31
2018-09-09T03:43:21.226Z,86.64
2018-09-09T03:44:21.251Z,86.45
2018-09-09T03:45:21.273Z,87.21
2018-09-09T03:46:21.297Z,87.12
2018-09-09T03:47:21.320Z,86.54
2018-09-09T03:48:21.341Z,85.78
2018-09-09T03:49:21.367Z,86.45
2018-09-09T03:50:21.391Z,86.54
2018-09-09T03:51:21.406Z,86.45
2018-09-09T03:52:21.434Z,86.16
2018-09-09T03:53:21.456Z,85.97
2018-09-09T03:54:21.475Z,85.78
2018-09-09T03:55:21.497Z,86.74
2018-09-09T03:56:21.529Z,85.97
2018-09-09T03:57:21.557Z,85.97
2018-09-09T03:58:21.565Z,86.16
2018-09-09T03:59:21.585Z,86.74
2018-09-09T04:00:21.607Z,85.78
2018-09-09T04:01:21.633Z,86.83
2018-09-09T04:02:21.657Z,86.45
2018-09-09T04:03:21.673Z,85.78
2018-09-09T04:04:21.705Z,86.54
2018-09-09T04:05:21.727Z,86.25
2018-09-09T04:06:21.752Z,86.35
2018-09-09T04:07:21.773Z,86.93
2018-09-09T04:08:21.793Z,87.79
2018-09-09T04:09:21.815Z,87.50
2018-09-09T04:10:21.837Z,87.21
2018-09-09T04:11:21.865Z,87.31
2018-09-09T04:12:21.880Z,87.41
2018-09-09T04:13:21.901Z,87.21
2018-09-09T04:14:21.927Z,87.60
2018-09-09T04:15:21.945Z,87.70
2018-09-09T04:16:21.972Z,87.50
2018-09-09T04:17:21.997Z,87.31
2018-09-09T04:18:22.016Z,87.31
2018-09-09T04:19:22.034Z,87.50
2018-09-09T04:20:22.061Z,87.50
2018-09-09T04:21:22.089Z,87.31
2018-09-09T04:22:22.107Z,87.60
2018-09-09T04:23:22.127Z,87.21
2018-09-09T04:24:22.149Z,87.21
2018-09-09T04:25:22.173Z,86.93
2018-09-09T04:26:22.198Z,87.41
2018-09-09T04:27:22.217Z,87.21
2018-09-09T04:28:22.241Z,87.31
2018-09-09T04:29:22.265Z,87.70
2018-09-09T04:30:22.293Z,87.88
2018-09-09T04:31:22.309Z,86.45
2018-09-09T04:32:22.329Z,86.25
2018-09-09T04:33:22.351Z,86.45
2018-09-09T04:34:22.377Z,86.64
2018-09-09T04:35:22.392Z,86.64
2018-09-09T04:36:22.423Z,86.64
2018-09-09T04:37:22.442Z,87.31
2018-09-09T04:38:22.465Z,87.50
2018-09-09T04:39:22.486Z,87.31
2018-09-09T04:40:22.510Z,87.50
2018-09-09T04:41:22.537Z,87.79
2018-09-09T04:42:22.557Z,87.31
2018-09-09T04:43:22.581Z,86.83
2018-09-09T04:44:22.600Z,87.02
2018-09-09T04:45:22.620Z,87.31
2018-09-09T04:46:22.685Z,87.70
2018-09-09T04:47:22.667Z,86.64
2018-09-09T04:48:22.692Z,87.12
2018-09-09T04:49:22.715Z,87.50
2018-09-09T04:50:22.733Z,87.70
2018-09-09T04:51:22.757Z,87.79
2018-09-09T04:52:22.779Z,86.64
2018-09-09T04:53:22.807Z,86.83
2018-09-09T04:54:22.823Z,87.21
2018-09-09T04:55:22.844Z,86.64
2018-09-09T04:56:22.873Z,87.70
2018-09-09T04:57:22.895Z,87.88
2018-09-09T04:58:22.913Z,87.31
2018-09-09T04:59:22.936Z,87.31
2018-09-09T05:00:22.959Z,86.45
2018-09-09T05:01:23.064Z,87.41
2018-09-09T05:02:23.003Z,87.70
2018-09-09T05:03:23.083Z,87.79
2018-09-09T05:04:23.053Z,86.64
2018-09-09T05:05:23.077Z,87.31
2018-09-09T05:06:23.096Z,87.31
2018-09-09T05:07:23.117Z,87.60
2018-09-09T05:08:23.143Z,86.45
2018-09-09T05:09:23.164Z,87.31
2018-09-09T05:10:23.187Z,86.93
2018-09-09T05:11:23.207Z,87.70
2018-09-09T05:12:23.239Z,87.79
2018-09-09T05:13:23.253Z,87.02
2018-09-09T05:14:23.271Z,87.41
2018-09-09T05:15:23.305Z,87.70
2018-09-09T05:16:23.321Z,87.12
2018-09-09T05:17:23.347Z,87.70
2018-09-09T05:18:23.365Z,87.60
2018-09-09T05:19:23.387Z,87.50
2018-09-09T05:20:23.413Z,87.79
2018-09-09T05:21:23.434Z,87.41
2018-09-09T05:22:23.452Z,87.12
2018-09-09T05:23:23.479Z,86.45
2018-09-09T05:24:23.506Z,86.45
2018-09-09T05:25:23.524Z,86.93
2018-09-09T05:26:23.543Z,86.35
2018-09-09T05:27:23.573Z,86.35
2018-09-09T05:28:23.593Z,87.26
2018-09-09T05:29:23.617Z,86.88
2018-09-09T05:30:23.640Z,86.49
2018-09-09T05:31:23.655Z,86.74
2018-09-09T05:32:23.681Z,86.35
2018-09-09T05:33:23.706Z,86.40
2018-09-09T05:34:23.729Z,86.54
2018-09-09T05:35:23.751Z,86.54
2018-09-09T05:36:23.771Z,86.83
2018-09-09T05:37:23.793Z,86.58
2018-09-09T05:38:23.816Z,87.55
2018-09-09T05:39:23.844Z,86.35
2018-09-09T05:40:23.857Z,86.64
2018-09-09T05:41:23.881Z,86.64
2018-09-09T05:42:23.993Z,86.83
2018-09-09T05:43:23.927Z,86.88
2018-09-09T05:44:23.953Z,86.49
2018-09-09T05:45:23.983Z,85.92
2018-09-09T05:46:24.002Z,86.58
2018-09-09T05:47:24.019Z,86.21
2018-09-09T05:48:24.041Z,85.92
2018-09-09T05:49:24.065Z,86.68
2018-09-09T05:50:24.091Z,86.01
2018-09-09T05:51:24.110Z,85.82
2018-09-09T05:52:24.137Z,85.92
2018-09-09T05:53:24.159Z,85.92
2018-09-09T05:54:24.180Z,86.40
2018-09-09T05:55:24.201Z,86.58
2018-09-09T05:56:24.221Z,86.58
2018-09-09T05:57:24.306Z,86.68
2018-09-09T05:58:24.268Z,86.68
2018-09-09T05:59:24.292Z,86.58
2018-09-09T06:00:24.313Z,85.53
2018-09-09T06:01:24.338Z,85.82
2018-09-09T06:02:24.367Z,85.44
2018-09-09T06:03:24.380Z,85.53
2018-09-09T06:04:24.402Z,86.49
2018-09-09T06:05:24.436Z,85.82
2018-09-09T06:06:24.457Z,86.11
2018-09-09T06:07:24.490Z,86.49
2018-09-09T06:08:24.500Z,86.49
2018-09-09T06:09:24.524Z,85.92
2018-09-09T06:10:24.547Z,85.44
2018-09-09T06:11:24.563Z,85.92
2018-09-09T06:12:24.592Z,85.53
2018-09-09T06:13:24.615Z,86.05
2018-09-09T06:14:24.632Z,85.77
2018-09-09T06:15:24.659Z,85.77
2018-09-09T06:16:24.684Z,85.77
2018-09-09T06:17:24.705Z,85.00
2018-09-09T06:18:24.730Z,84.95
2018-09-09T06:19:24.747Z,85.48
2018-09-09T06:20:24.772Z,85.28
2018-09-09T06:21:24.800Z,85.77
2018-09-09T06:22:24.822Z,85.19
2018-09-09T06:23:24.839Z,85.48
2018-09-09T06:24:24.865Z,85.48
2018-09-09T06:25:24.889Z,85.48
2018-09-09T06:26:24.910Z,85.38
2018-09-09T06:27:24.938Z,85.48
2018-09-09T06:28:25.004Z,86.72
2018-09-09T06:29:24.982Z,85.58
2018-09-09T06:30:25.006Z,84.81
2018-09-09T06:31:25.031Z,84.52
2018-09-09T06:32:25.059Z,84.61
2018-09-09T06:33:25.076Z,84.71
2018-09-09T06:34:25.099Z,84.04
2018-09-09T06:35:25.119Z,84.52
2018-09-09T06:36:25.144Z,84.23
2018-09-09T06:37:25.168Z,84.23
2018-09-09T06:38:25.207Z,84.52
2018-09-09T06:39:25.219Z,84.23
2018-09-09T06:40:25.238Z,84.42
2018-09-09T06:41:25.256Z,84.23
2018-09-09T06:42:25.293Z,83.85
2018-09-09T06:43:25.308Z,83.37
2018-09-09T06:44:25.330Z,83.47
2018-09-09T06:45:25.358Z,83.22
2018-09-09T06:46:25.425Z,83.41
2018-09-09T06:47:25.400Z,83.37
2018-09-09T06:48:25.427Z,82.54
2018-09-09T06:49:25.443Z,82.26
2018-09-09T06:50:25.478Z,82.84
2018-09-09T06:51:25.621Z,82.54
2018-09-09T06:52:25.520Z,82.84
2018-09-09T06:53:25.546Z,82.93
2018-09-09T06:54:25.560Z,82.93
2018-09-09T06:55:25.595Z,81.59
2018-09-09T06:56:25.609Z,82.35
2018-09-09T06:57:25.633Z,82.26
2018-09-09T06:58:25.658Z,81.97
2018-09-09T06:59:25.692Z,82.35
2018-09-09T07:00:25.702Z,82.26
2018-09-09T07:01:25.732Z,81.68
2018-09-09T07:02:25.887Z,81.20
2018-09-09T07:03:25.778Z,81.78
2018-09-09T07:04:25.803Z,82.16
2018-09-09T07:05:25.823Z,81.59
2018-09-09T07:06:25.842Z,81.87
2018-09-09T07:07:25.867Z,81.97
2018-09-09T07:08:25.896Z,81.40
2018-09-09T07:09:25.920Z,81.78
2018-09-09T07:10:25.944Z,81.24
2018-09-09T07:11:26.124Z,79.90
2018-09-09T07:12:25.992Z,80.53
2018-09-09T07:13:26.015Z,80.57
2018-09-09T07:14:26.040Z,80.47
2018-09-09T07:15:26.057Z,81.24
2018-09-09T07:16:26.082Z,81.82
2018-09-09T07:17:26.106Z,80.57
2018-09-09T07:18:26.126Z,81.34
2018-09-09T07:19:26.161Z,80.96
2018-09-09T07:20:26.179Z,80.66
2018-09-09T07:21:26.203Z,79.22
2018-09-09T07:22:26.225Z,80.38
2018-09-09T07:23:26.248Z,81.05
2018-09-09T07:24:26.276Z,81.15
2018-09-09T07:25:26.300Z,79.99
2018-09-09T07:26:26.318Z,79.65
2018-09-09T07:27:26.344Z,79.27
2018-09-09T07:28:26.389Z,79.17
2018-09-09T07:29:26.394Z,79.17
2018-09-09T07:30:26.417Z,78.40
2018-09-09T07:31:26.443Z,78.21
2018-09-09T07:32:26.468Z,77.83
2018-09-09T07:33:26.489Z,77.73
2018-09-09T07:34:26.511Z,77.15
2018-09-09T07:35:26.531Z,78.78
2018-09-09T07:36:26.560Z,77.73
2018-09-09T07:37:26.631Z,76.77
2018-09-09T07:38:26.613Z,76.77
2018-09-09T07:39:26.632Z,76.77
2018-09-09T07:40:26.661Z,77.29
2018-09-09T07:41:26.680Z,78.44
2018-09-09T07:42:26.706Z,77.09
2018-09-09T07:43:26.731Z,76.00
2018-09-09T07:44:26.759Z,76.09
2018-09-09T07:45:26.775Z,76.29
2018-09-09T07:46:26.863Z,76.09
2018-09-09T07:47:27.236Z,75.62
2018-09-09T07:48:26.847Z,76.09
2018-09-09T07:49:26.881Z,74.17
2018-09-09T07:50:26.897Z,73.21
2018-09-09T07:51:26.950Z,73.41
2018-09-09T07:52:26.946Z,74.17
2018-09-09T07:53:26.975Z,73.41
2018-09-09T07:54:27.003Z,73.02
2018-09-09T07:55:27.026Z,73.06
2018-09-09T07:56:27.043Z,73.54
2018-09-09T07:57:27.073Z,72.48
2018-09-09T07:58:27.092Z,73.06
2018-09-09T07:59:27.116Z,72.77
2018-09-09T08:00:27.174Z,73.15
2018-09-09T08:01:27.169Z,72.77
2018-09-09T08:02:27.195Z,73.54
2018-09-09T08:03:27.216Z,72.77
2018-09-09T08:04:27.242Z,71.71
2018-09-09T08:05:27.260Z,73.15
2018-09-09T08:06:27.285Z,72.29
2018-09-09T08:07:27.316Z,72.77
2018-09-09T08:08:27.337Z,73.54
2018-09-09T08:09:27.367Z,72.86
2018-09-09T08:10:27.387Z,72.48
2018-09-09T08:11:27.411Z,74.21
2018-09-09T08:12:27.429Z,73.25
2018-09-09T08:13:27.459Z,72.96
2018-09-09T08:14:27.501Z,73.35
2018-09-09T08:15:27.541Z,73.83
2018-09-09T08:16:27.539Z,73.83
2018-09-09T08:17:27.561Z,73.25
2018-09-09T08:18:27.644Z,71.81
2018-09-09T08:19:27.607Z,72.32
2018-09-09T08:20:27.629Z,72.52
2018-09-09T08:21:27.655Z,72.03
2018-09-09T08:22:27.680Z,73.47
2018-09-09T08:23:27.762Z,73.47
2018-09-09T08:24:27.733Z,73.19
2018-09-09T08:25:27.754Z,72.90
2018-09-09T08:26:27.784Z,72.03
2018-09-09T08:27:27.807Z,71.46
2018-09-09T08:28:27.828Z,71.65
2018-09-09T08:29:27.853Z,71.94
2018-09-09T08:30:27.879Z,70.78
2018-09-09T08:31:27.913Z,71.75
2018-09-09T08:32:27.925Z,71.49
2018-09-09T08:33:27.954Z,71.30
2018-09-09T08:34:27.974Z,72.26
2018-09-09T08:35:28.000Z,73.51
2018-09-09T08:36:28.023Z,73.61
2018-09-09T08:37:28.062Z,71.88
2018-09-09T08:38:28.075Z,71.59
2018-09-09T08:39:28.110Z,71.88
2018-09-09T08:40:28.127Z,71.01
2018-09-09T08:41:28.155Z,71.88
2018-09-09T08:42:28.180Z,71.30
2018-09-09T08:43:28.199Z,70.43
2018-09-09T08:44:28.226Z,70.82
2018-09-09T08:45:28.286Z,70.62
2018-09-09T08:46:28.274Z,71.69
2018-09-09T08:47:28.300Z,73.42
2018-09-09T08:48:28.325Z,72.26
2018-09-09T08:49:28.347Z,71.59
2018-09-09T08:50:28.376Z,71.78
2018-09-09T08:51:28.406Z,71.43
2018-09-09T08:52:28.424Z,71.81
2018-09-09T08:53:28.452Z,71.24
2018-09-09T08:54:28.480Z,70.66
2018-09-09T08:55:28.514Z,71.34
2018-09-09T08:56:28.524Z,70.47
2018-09-09T08:57:28.608Z,72.68
2018-09-09T08:58:28.580Z,74.13
2018-09-09T08:59:28.603Z,73.74
2018-09-09T09:00:28.631Z,71.72
2018-09-09T09:01:28.657Z,69.89
2018-09-09T09:02:28.683Z,70.47
2018-09-09T09:03:28.706Z,70.47
2018-09-09T09:04:28.729Z,69.99
2018-09-09T09:05:28.756Z,71.72
2018-09-09T09:06:28.785Z,70.09
2018-09-09T09:07:28.887Z,69.70
2018-09-09T09:08:28.827Z,69.83
2018-09-09T09:09:28.856Z,68.96
2018-09-09T09:10:28.884Z,69.06
2018-09-09T09:11:28.906Z,68.38
2018-09-09T09:12:28.944Z,69.15
2018-09-09T09:13:28.964Z,68.87
2018-09-09T09:14:28.986Z,67.55
2018-09-09T09:15:29.010Z,67.94
2018-09-09T09:16:29.036Z,67.36
2018-09-09T09:17:29.064Z,67.07
2018-09-09T09:18:29.106Z,66.39
2018-09-09T09:19:29.114Z,65.81
2018-09-09T09:20:29.153Z,66.17
2018-09-09T09:21:29.167Z,66.46
2018-09-09T09:22:29.199Z,67.03
2018-09-09T09:23:29.245Z,67.42
2018-09-09T09:24:29.248Z,67.42
2018-09-09T09:25:29.270Z,68.19
2018-09-09T09:26:29.292Z,68.00
2018-09-09T09:27:29.328Z,67.90
2018-09-09T09:28:29.348Z,67.42
2018-09-09T09:29:29.372Z,67.61
2018-09-09T09:30:29.400Z,68.80
2018-09-09T09:31:29.422Z,68.80
2018-09-09T09:32:29.449Z,68.23
2018-09-09T09:33:29.476Z,68.10
2018-09-09T09:34:29.507Z,69.73
2018-09-09T09:35:29.529Z,71.47
2018-09-09T09:36:29.555Z,70.70
2018-09-09T09:37:29.580Z,72.05
2018-09-09T09:38:29.610Z,70.79
2018-09-09T09:39:29.741Z,71.62
2018-09-09T09:40:29.661Z,72.72
2018-09-09T09:41:29.678Z,72.11
2018-09-09T09:42:29.712Z,72.49
2018-09-09T09:43:29.736Z,72.88
2018-09-09T09:44:29.759Z,73.36
2018-09-09T09:45:29.788Z,73.74
2018-09-09T09:46:29.810Z,72.59
2018-09-09T09:47:29.833Z,74.41
2018-09-09T09:48:29.859Z,73.65
2018-09-09T09:49:29.890Z,71.91
2018-09-09T09:50:29.911Z,71.85
2018-09-09T09:51:29.936Z,72.53
2018-09-09T09:52:29.960Z,70.02
2018-09-09T09:53:30.012Z,69.83
2018-09-09T09:54:30.018Z,67.71
2018-09-09T09:55:30.074Z,67.65
2018-09-09T09:56:30.067Z,68.99
2018-09-09T09:57:30.097Z,68.04
2018-09-09T09:58:30.119Z,67.36
2018-09-09T09:59:30.138Z,67.46
2018-09-09T10:00:30.166Z,67.07
2018-09-09T10:01:30.194Z,67.26
2018-09-09T10:02:30.216Z,66.69
2018-09-09T10:03:30.311Z,66.62
2018-09-09T10:04:30.266Z,66.14
2018-09-09T10:05:30.294Z,67.71
2018-09-09T10:06:30.317Z,68.43
2018-09-09T10:07:30.346Z,65.53
2018-09-09T10:08:30.374Z,64.79
2018-09-09T10:09:30.398Z,64.21
2018-09-09T10:10:30.421Z,64.37
2018-09-09T10:11:30.444Z,63.95
2018-09-09T10:12:30.470Z,67.58
2018-09-09T10:13:30.504Z,67.68
2018-09-09T10:14:30.530Z,69.13
2018-09-09T10:15:30.552Z,68.16
2018-09-09T10:16:30.588Z,67.68
2018-09-09T10:17:30.601Z,67.20
2018-09-09T10:18:30.636Z,65.95
2018-09-09T10:19:30.662Z,67.33
2018-09-09T10:20:30.683Z,66.24
2018-09-09T10:21:30.713Z,65.27
2018-09-09T10:22:30.735Z,66.24
2018-09-09T10:23:30.763Z,66.72
2018-09-09T10:24:30.806Z,66.36
2018-09-09T10:25:30.812Z,67.33
2018-09-09T10:26:30.838Z,67.81
2018-09-09T10:27:30.871Z,66.17
2018-09-09T10:28:30.900Z,66.17
2018-09-09T10:29:30.928Z,66.66
2018-09-09T10:30:30.949Z,66.66
2018-09-09T10:31:30.979Z,69.07
2018-09-09T10:32:31.002Z,68.33
2018-09-09T10:33:31.028Z,66.11
2018-09-09T10:34:31.052Z,66.30
2018-09-09T10:35:31.084Z,65.14
2018-09-09T10:36:31.102Z,67.65
2018-09-09T10:37:31.130Z,66.78
2018-09-09T10:38:31.160Z,65.05
2018-09-09T10:39:31.185Z,65.43
2018-09-09T10:40:31.213Z,64.59
2018-09-09T10:41:31.242Z,65.85
2018-09-09T10:42:31.263Z,64.86
2018-09-09T10:43:31.289Z,65.63
2018-09-09T10:44:31.319Z,65.53
2018-09-09T10:45:31.350Z,65.14
2018-09-09T10:46:31.484Z,66.17
2018-09-09T10:47:31.401Z,67.17
2018-09-09T10:48:31.430Z,67.17
2018-09-09T10:49:31.454Z,65.43
2018-09-09T10:50:31.484Z,65.63
2018-09-09T10:51:31.509Z,68.23
2018-09-09T10:52:31.540Z,65.43
2018-09-09T10:53:31.568Z,64.89
2018-09-09T10:54:31.589Z,65.85
2018-09-09T10:55:31.613Z,66.14
2018-09-09T10:56:31.644Z,65.01
2018-09-09T10:57:31.672Z,64.34
2018-09-09T10:58:31.697Z,62.63
2018-09-09T10:59:31.723Z,61.79
2018-09-09T11:00:31.751Z,60.82
2018-09-09T11:01:31.782Z,60.44
2018-09-09T11:02:31.803Z,59.38
2018-09-09T11:03:31.831Z,58.44
2018-09-09T11:04:31.860Z,58.88
2018-09-09T11:05:31.892Z,55.42
2018-09-09T11:06:31.920Z,56.20
2018-09-09T11:07:31.946Z,54.92
2018-09-09T11:08:31.970Z,52.21
2018-09-09T11:09:31.998Z,48.44
2018-09-09T11:10:32.030Z,47.71
2018-09-09T11:11:32.064Z,47.56
2018-09-09T11:12:32.142Z,47.13
2018-09-09T11:13:32.118Z,44.44
2018-09-09T11:14:32.152Z,43.61
2018-09-09T11:15:32.176Z,42.41
2018-09-09T11:16:32.206Z,44.32
2018-09-09T11:17:32.244Z,45.47
2018-09-09T11:18:32.274Z,46.54
2018-09-09T11:19:32.302Z,44.29
2018-09-09T11:20:32.338Z,44.24
2018-09-09T11:21:32.377Z,42.26
2018-09-09T11:22:32.420Z,42.36
2018-09-09T11:23:32.427Z,39.96
2018-09-09T11:24:32.528Z,39.16
2018-09-09T11:25:32.496Z,39.51
2018-09-09T11:26:32.532Z,39.36
2018-09-09T11:27:32.562Z,40.37
2018-09-09T11:28:32.596Z,40.45
2018-09-09T11:29:32.637Z,39.33
2018-09-09T11:30:32.683Z,41.93
2018-09-09T11:31:32.706Z,42.41
2018-09-09T11:32:32.736Z,41.15
2018-09-09T11:33:32.772Z,41.09
2018-09-09T11:34:32.804Z,41.05
2018-09-09T11:35:32.832Z,41.50
2018-09-09T11:36:32.870Z,41.17
2018-09-09T11:37:32.905Z,40.14
2018-09-09T11:38:32.938Z,41.07
2018-09-09T11:39:33.012Z,42.22
2018-09-09T11:40:33.055Z,42.30
2018-09-09T11:41:33.040Z,43.08
2018-09-09T11:42:33.080Z,40.63
2018-09-09T11:43:33.108Z,38.08
2018-09-09T11:44:33.146Z,37.41
2018-09-09T11:45:33.176Z,35.93
2018-09-09T11:46:33.213Z,37.99
2018-09-09T11:47:33.251Z,40.16
2018-09-09T11:48:33.284Z,42.35
2018-09-09T11:49:33.324Z,44.92
2018-09-09T11:50:33.352Z,46.69
2018-09-09T11:51:33.388Z,48.27
2018-09-09T11:52:33.422Z,50.48
2018-09-09T11:53:33.456Z,50.89
2018-09-09T11:54:33.495Z,50.53
2018-09-09T11:55:33.514Z,48.90
2018-09-09T11:56:33.558Z,50.84
2018-09-09T11:57:33.588Z,50.84
2018-09-09T11:58:33.621Z,50.68
2018-09-09T11:59:33.656Z,49.15
2018-09-09T12:00:33.682Z,47.08
2018-09-09T12:01:33.713Z,43.44
2018-09-09T12:02:33.748Z,42.40
2018-09-09T12:03:33.779Z,42.22
2018-09-09T12:04:33.810Z,39.36
2018-09-09T12:05:33.845Z,39.06
2018-09-09T12:06:33.880Z,38.38
2018-09-09T12:07:33.963Z,39.53
2018-09-09T12:08:33.941Z,40.63
2018-09-09T12:09:33.969Z,42.73
2018-09-09T12:10:34.006Z,39.69
2018-09-09T12:11:34.035Z,39.14
2018-09-09T12:12:34.074Z,37.57
2018-09-09T12:13:34.107Z,36.25
2018-09-09T12:14:34.143Z,36.58
2018-09-09T12:15:34.176Z,33.69
2018-09-09T12:16:34.215Z,31.95
2018-09-09T12:17:34.244Z,31.35
2018-09-09T12:18:34.283Z,33.75
2018-09-09T12:19:34.316Z,35.81
2018-09-09T12:20:34.351Z,34.88
2018-09-09T12:21:34.387Z,36.53
2018-09-09T12:22:34.421Z,35.39
2018-09-09T12:23:34.530Z,36.38
2018-09-09T12:24:34.491Z,39.04
2018-09-09T12:25:34.532Z,36.18
2018-09-09T12:26:34.561Z,33.95
2018-09-09T12:27:34.595Z,36.58
2018-09-09T12:28:34.644Z,38.10
2018-09-09T12:29:34.664Z,35.58
2018-09-09T12:30:34.703Z,34.78
2018-09-09T12:31:34.750Z,34.01
2018-09-09T12:32:34.828Z,33.31
2018-09-09T12:33:34.817Z,32.08
2018-09-09T12:34:34.851Z,30.19
2018-09-09T12:35:34.898Z,29.85
2018-09-09T12:36:34.922Z,28.89
2018-09-09T12:37:34.963Z,28.51
2018-09-09T12:38:34.995Z,27.64
2018-09-09T12:39:35.038Z,27.06
2018-09-09T12:40:35.082Z,26.57
2018-09-09T12:41:35.107Z,26.02
2018-09-09T12:42:35.142Z,26.98
2018-09-09T12:44:35.219Z,29.62
2018-09-09T12:45:35.255Z,28.88
2018-09-09T12:46:35.296Z,27.99
2018-09-09T12:47:35.328Z,28.02
2018-09-09T12:48:35.372Z,28.30
2018-09-09T12:49:35.419Z,27.82
2018-09-09T12:50:35.449Z,27.93
2018-09-09T12:51:35.484Z,27.66
2018-09-09T12:52:35.531Z,26.80
2018-09-09T12:53:35.562Z,24.95